Sylvan Township, Michigan
Current Conditions -  °F | °C
As of 1:02 AM on Wednesday 22 Oct 2014 (Local Time) from KARB Reporting Station
Overcast Overcast  
Wind Chill: 39°   Ceiling: 2000
Heat Index: 44°   Visibility: 10mi
Dew Point: 34°   Wind: 9mph
Humidity: 68%   Direction: 10°N
Pressure: 30.22"   Gusts: NA
Location:  42.3129°N, 84.0322°W
Report Text: KARB 220502Z AUTO 01008KT 10SM BKN020 OVC030 07/01 A3022 RMK AO2 T00670011
Loading
Personal Weather Stations






























Interactive Weather Map New forecast layout! Learn more

10-Day Weather Forecast

Advertisements
Track Severe Weather on mobile